createdAt,value
2017-08-27T00:01:36.389Z,6.20
2017-08-27T00:04:03.995Z,5.60
2017-08-27T00:06:31.608Z,5.93
2017-08-27T00:08:59.191Z,5.17
2017-08-27T00:11:26.783Z,5.50
2017-08-27T00:13:54.375Z,5.53
2017-08-27T00:16:22.240Z,6.27
2017-08-27T00:18:49.832Z,5.50
2017-08-27T00:21:17.395Z,5.60
2017-08-27T00:23:44.967Z,5.77
2017-08-27T00:26:12.529Z,4.97
2017-08-27T00:28:40.120Z,5.53
2017-08-27T00:31:08.484Z,4.87
2017-08-27T00:33:36.092Z,5.50
2017-08-27T00:36:03.761Z,5.07
2017-08-27T00:38:31.661Z,4.80
2017-08-27T00:40:59.241Z,4.83
2017-08-27T00:43:26.938Z,5.47
2017-08-27T00:45:54.571Z,4.50
2017-08-27T00:48:22.961Z,4.90
2017-08-27T00:50:50.655Z,5.67
2017-08-27T00:53:18.248Z,5.10
2017-08-27T00:55:46.445Z,4.57
2017-08-27T00:58:14.805Z,4.70
2017-08-27T01:00:42.395Z,5.20
2017-08-27T01:03:09.980Z,4.77
2017-08-27T01:05:37.878Z,5.20
2017-08-27T01:08:05.476Z,5.60
2017-08-27T01:10:33.036Z,5.03
2017-08-27T01:13:00.625Z,5.03
2017-08-27T01:15:28.236Z,4.70
2017-08-27T01:17:55.813Z,7.47
2017-08-27T01:20:23.403Z,4.47
2017-08-27T01:22:51.016Z,4.70
2017-08-27T01:25:18.590Z,5.40
2017-08-27T01:27:46.436Z,5.83
2017-08-27T01:30:14.018Z,4.63
2017-08-27T01:32:41.594Z,5.00
2017-08-27T01:35:09.209Z,4.97
2017-08-27T01:37:36.784Z,6.30
2017-08-27T01:40:04.377Z,5.80
2017-08-27T01:42:32.731Z,5.70
2017-08-27T01:45:00.316Z,5.10
2017-08-27T01:47:27.893Z,4.53
2017-08-27T01:49:55.500Z,5.20
2017-08-27T01:52:23.865Z,5.23
2017-08-27T01:54:51.709Z,4.90
2017-08-27T01:57:19.296Z,5.17
2017-08-27T01:59:47.468Z,5.33
2017-08-27T02:02:15.131Z,5.20
2017-08-27T02:04:42.916Z,5.20
2017-08-27T02:07:10.552Z,5.00
2017-08-27T02:09:38.138Z,5.73
2017-08-27T02:12:05.739Z,4.50
2017-08-27T02:14:33.338Z,4.60
2017-08-27T02:17:01.698Z,5.80
2017-08-27T02:19:29.291Z,5.00
2017-08-27T02:21:57.312Z,5.67
2017-08-27T02:24:24.888Z,4.53
2017-08-27T02:26:52.493Z,4.57
2017-08-27T02:29:20.084Z,5.20
2017-08-27T02:31:47.691Z,3.87
2017-08-27T02:34:15.284Z,5.63
2017-08-27T02:36:42.891Z,4.67
2017-08-27T02:39:10.577Z,5.90
2017-08-27T02:41:38.197Z,5.50
2017-08-27T02:44:05.858Z,4.80
2017-08-27T02:46:33.491Z,5.30
2017-08-27T02:49:01.126Z,4.40
2017-08-27T02:51:28.749Z,5.30
2017-08-27T02:53:56.350Z,5.23
2017-08-27T02:56:23.952Z,4.83
2017-08-27T02:58:51.619Z,5.10
2017-08-27T03:01:19.232Z,5.60
2017-08-27T03:03:46.810Z,4.90
2017-08-27T03:06:14.409Z,4.67
2017-08-27T03:08:42.029Z,4.40
2017-08-27T03:11:09.675Z,4.30
2017-08-27T03:13:37.266Z,4.53
2017-08-27T03:16:05.153Z,5.00
2017-08-27T03:18:32.780Z,5.70
2017-08-27T03:21:00.394Z,5.20
2017-08-27T03:23:28.005Z,5.10
2017-08-27T03:25:55.615Z,4.77
2017-08-27T03:28:23.222Z,5.00
2017-08-27T03:30:50.837Z,4.83
2017-08-27T03:33:18.483Z,5.80
2017-08-27T03:35:46.994Z,5.33
2017-08-27T03:38:14.843Z,4.90
2017-08-27T03:40:42.441Z,4.60
2017-08-27T03:43:10.511Z,5.33
2017-08-27T03:45:38.126Z,4.70
2017-08-27T03:48:05.732Z,5.60
2017-08-27T03:50:33.361Z,4.93
2017-08-27T03:53:01.003Z,4.90
2017-08-27T03:55:28.615Z,6.10
2017-08-27T03:57:56.969Z,4.97
2017-08-27T04:00:24.862Z,4.50
2017-08-27T04:02:52.437Z,4.37
2017-08-27T04:05:20.014Z,5.43
2017-08-27T04:07:47.616Z,5.07
2017-08-27T04:10:15.189Z,5.03
2017-08-27T04:12:42.769Z,4.57
2017-08-27T04:15:10.354Z,5.50
2017-08-27T04:17:37.956Z,5.13
2017-08-27T04:20:05.525Z,5.23
2017-08-27T04:22:33.412Z,5.10
2017-08-27T04:25:01.006Z,4.97
2017-08-27T04:27:29.362Z,5.53
2017-08-27T04:29:56.953Z,5.00
2017-08-27T04:32:25.292Z,4.70
2017-08-27T04:34:52.884Z,4.77
2017-08-27T04:37:20.480Z,4.50
2017-08-27T04:39:48.071Z,5.20
2017-08-27T04:42:15.675Z,4.40
2017-08-27T04:44:43.275Z,4.93
2017-08-27T04:47:10.866Z,4.70
2017-08-27T04:49:38.497Z,5.40
2017-08-27T04:52:06.160Z,5.03
2017-08-27T04:54:33.792Z,4.77
2017-08-27T04:57:01.664Z,4.63
2017-08-27T04:59:29.237Z,5.50
2017-08-27T05:01:56.828Z,5.00
2017-08-27T05:04:25.207Z,5.20
2017-08-27T05:06:53.564Z,5.00
2017-08-27T05:09:21.146Z,4.73
2017-08-27T05:11:49.490Z,4.87
2017-08-27T05:14:17.361Z,5.20
2017-08-27T05:16:44.951Z,5.03
2017-08-27T05:19:13.285Z,4.70
2017-08-27T05:21:40.856Z,4.87
2017-08-27T05:24:08.476Z,4.60
2017-08-27T05:26:36.084Z,4.10
2017-08-27T05:29:03.686Z,4.87
2017-08-27T05:31:31.286Z,4.20
2017-08-27T05:33:58.863Z,4.77
2017-08-27T05:36:26.734Z,4.20
2017-08-27T05:38:54.321Z,4.70
2017-08-27T05:41:21.902Z,4.23
2017-08-27T05:43:49.498Z,5.10
2017-08-27T05:46:17.083Z,4.73
2017-08-27T05:48:44.679Z,4.67
2017-08-27T05:51:12.266Z,4.40
2017-08-27T05:53:39.865Z,5.00
2017-08-27T05:56:08.220Z,4.43
2017-08-27T05:58:36.081Z,5.00
2017-08-27T06:01:03.668Z,5.20
2017-08-27T06:03:31.259Z,4.90
2017-08-27T06:05:58.863Z,4.10
2017-08-27T06:08:26.459Z,4.20
2017-08-27T06:10:54.057Z,4.93
2017-08-27T06:13:21.662Z,4.87
2017-08-27T06:15:49.625Z,4.63
2017-08-27T06:18:17.214Z,4.10
2017-08-27T06:20:44.803Z,4.13
2017-08-27T06:23:12.620Z,4.10
2017-08-27T06:25:40.210Z,4.23
2017-08-27T06:28:07.821Z,4.17
2017-08-27T06:30:35.431Z,4.73
2017-08-27T06:33:03.343Z,3.30
2017-08-27T06:35:30.956Z,3.97
2017-08-27T06:37:58.536Z,4.07
2017-08-27T06:40:26.107Z,4.17
2017-08-27T06:42:53.685Z,4.60
2017-08-27T06:45:21.267Z,4.47
2017-08-27T06:47:48.834Z,4.80
2017-08-27T06:50:16.437Z,4.03
2017-08-27T06:52:44.009Z,4.00
2017-08-27T06:55:11.981Z,3.60
2017-08-27T06:57:39.550Z,4.40
2017-08-27T07:00:07.147Z,4.57
2017-08-27T07:02:34.870Z,4.23
2017-08-27T07:05:03.231Z,4.33
2017-08-27T07:07:30.885Z,4.67
2017-08-27T07:09:58.489Z,4.27
2017-08-27T07:12:26.937Z,4.57
2017-08-27T07:14:54.537Z,4.27
2017-08-27T07:17:22.499Z,4.00
2017-08-27T07:19:50.108Z,3.70
2017-08-27T07:22:17.705Z,4.27
2017-08-27T07:24:45.394Z,4.43
2017-08-27T07:27:13.027Z,3.40
2017-08-27T07:29:40.634Z,6.00
2017-08-27T07:32:08.274Z,4.10
2017-08-27T07:34:35.883Z,4.17
2017-08-27T07:37:03.464Z,4.50
2017-08-27T07:39:31.352Z,4.13
2017-08-27T07:41:58.973Z,4.20
2017-08-27T07:44:27.360Z,5.03
2017-08-27T07:46:54.977Z,4.47
2017-08-27T07:49:22.585Z,4.67
2017-08-27T07:51:50.261Z,4.00
2017-08-27T07:54:17.851Z,4.00
2017-08-27T07:56:45.495Z,4.30
2017-08-27T07:59:13.198Z,4.10
2017-08-27T08:01:40.782Z,4.30
2017-08-27T08:04:08.357Z,4.47
2017-08-27T08:06:36.360Z,4.17
2017-08-27T08:09:03.979Z,4.33
2017-08-27T08:11:31.582Z,4.37
2017-08-27T08:13:59.159Z,4.30
2017-08-27T08:16:26.741Z,4.80
2017-08-27T08:18:54.327Z,3.63
2017-08-27T08:21:21.895Z,4.00
2017-08-27T08:23:49.537Z,4.10
2017-08-27T08:26:17.134Z,3.53
2017-08-27T08:28:44.989Z,4.33
2017-08-27T08:31:12.570Z,4.37
2017-08-27T08:33:40.164Z,4.80
2017-08-27T08:36:07.770Z,3.83
2017-08-27T08:38:35.506Z,5.13
2017-08-27T08:41:03.120Z,3.93
2017-08-27T08:43:30.811Z,4.10
2017-08-27T08:45:59.242Z,4.60
2017-08-27T08:48:26.886Z,4.30
2017-08-27T08:50:54.809Z,3.70
2017-08-27T08:53:22.407Z,4.70
2017-08-27T08:55:50.034Z,3.87
2017-08-27T08:58:18.449Z,3.80
2017-08-27T09:00:46.074Z,4.60
2017-08-27T09:03:13.846Z,4.27
2017-08-27T09:05:42.202Z,4.53
2017-08-27T09:08:09.871Z,4.20
2017-08-27T09:10:37.595Z,4.57
2017-08-27T09:13:05.460Z,4.10
2017-08-27T09:15:33.032Z,3.40
2017-08-27T09:18:00.599Z,4.13
2017-08-27T09:20:28.190Z,5.03
2017-08-27T09:22:55.894Z,4.60
2017-08-27T09:25:23.565Z,4.10
2017-08-27T09:27:51.207Z,4.23
2017-08-27T09:30:18.871Z,4.67
2017-08-27T09:32:46.480Z,4.70
2017-08-27T09:35:14.479Z,3.87
2017-08-27T09:37:42.109Z,4.53
2017-08-27T09:40:09.737Z,3.90
2017-08-27T09:42:37.383Z,4.27
2017-08-27T09:45:04.995Z,4.23
2017-08-27T09:47:34.655Z,4.60
2017-08-27T09:50:02.280Z,4.40
2017-08-27T09:52:29.884Z,3.50
2017-08-27T09:54:57.506Z,3.80
2017-08-27T09:57:25.518Z,4.50
2017-08-27T09:59:53.193Z,4.30
2017-08-27T10:02:20.794Z,4.43
2017-08-27T10:04:49.386Z,4.37
2017-08-27T10:07:17.191Z,4.63
2017-08-27T10:09:45.019Z,4.73
2017-08-27T10:12:12.634Z,4.80
2017-08-27T10:14:40.222Z,4.60
2017-08-27T10:17:07.812Z,4.57
2017-08-27T10:19:35.500Z,3.40
2017-08-27T10:22:03.118Z,3.97
2017-08-27T10:24:30.725Z,4.23
2017-08-27T10:26:58.343Z,4.87
2017-08-27T10:29:25.986Z,4.20
2017-08-27T10:31:53.578Z,4.27
2017-08-27T10:34:21.468Z,4.00
2017-08-27T10:36:49.052Z,3.90
2017-08-27T10:39:16.674Z,4.97
2017-08-27T10:41:44.268Z,4.40
2017-08-27T10:44:12.615Z,4.67
2017-08-27T10:46:40.203Z,4.60
2017-08-27T10:49:07.769Z,4.60
2017-08-27T10:51:35.419Z,4.43
2017-08-27T10:54:03.005Z,4.30
2017-08-27T10:56:30.969Z,4.43
2017-08-27T10:58:58.625Z,4.10
2017-08-27T11:01:26.253Z,3.80
2017-08-27T11:03:53.931Z,4.77
2017-08-27T11:06:21.558Z,4.50
2017-08-27T11:08:49.271Z,5.20
2017-08-27T11:11:17.155Z,4.00
2017-08-27T11:13:44.763Z,5.07
2017-08-27T11:16:12.358Z,4.77
2017-08-27T11:18:39.953Z,4.13
2017-08-27T11:21:07.571Z,4.40
2017-08-27T11:23:35.602Z,4.23
2017-08-27T11:26:03.214Z,4.63
2017-08-27T11:28:30.831Z,5.03
2017-08-27T11:30:58.435Z,4.63
2017-08-27T11:33:26.320Z,5.37
2017-08-27T11:35:53.916Z,4.83
2017-08-27T11:38:21.522Z,5.47
2017-08-27T11:40:49.142Z,4.17
2017-08-27T11:43:16.792Z,4.80
2017-08-27T11:45:44.519Z,6.73
2017-08-27T11:48:12.089Z,6.07
2017-08-27T11:50:39.706Z,5.77
2017-08-27T11:53:07.327Z,5.50
2017-08-27T11:55:35.009Z,5.33
2017-08-27T11:58:02.661Z,4.80
2017-08-27T12:00:31.490Z,5.00
2017-08-27T12:02:59.070Z,6.87
2017-08-27T12:05:26.706Z,5.53
2017-08-27T12:07:54.312Z,5.90
2017-08-27T12:10:21.907Z,6.40
2017-08-27T12:12:49.483Z,6.00
2017-08-27T12:15:17.138Z,7.60
2017-08-27T12:17:45.586Z,6.50
2017-08-27T12:20:13.203Z,5.97
2017-08-27T12:22:41.193Z,7.00
2017-08-27T12:25:08.785Z,6.60
2017-08-27T12:27:36.390Z,5.07
2017-08-27T12:30:03.985Z,5.37
2017-08-27T12:32:31.577Z,5.00
2017-08-27T12:34:59.298Z,4.87
2017-08-27T12:37:26.913Z,4.73
2017-08-27T12:39:54.514Z,4.03
2017-08-27T12:42:22.128Z,4.60
2017-08-27T12:44:49.737Z,4.10
2017-08-27T12:47:17.428Z,4.10
2017-08-27T12:49:45.315Z,3.80
2017-08-27T12:52:12.909Z,3.97
2017-08-27T12:54:40.541Z,3.67
2017-08-27T12:57:08.180Z,4.13
2017-08-27T12:59:35.821Z,4.10
2017-08-27T13:02:03.516Z,3.80
2017-08-27T13:04:31.125Z,4.20
2017-08-27T13:06:58.752Z,3.60
2017-08-27T13:09:26.396Z,4.20
2017-08-27T13:11:54.796Z,3.27
2017-08-27T13:14:22.449Z,3.80
2017-08-27T13:16:50.024Z,3.23
2017-08-27T13:19:17.639Z,3.03
2017-08-27T13:21:45.252Z,3.50
2017-08-27T13:24:12.821Z,3.30
2017-08-27T13:26:40.822Z,3.23
2017-08-27T13:29:08.397Z,4.50
2017-08-27T13:31:35.993Z,3.97
2017-08-27T13:34:03.694Z,3.73
2017-08-27T13:36:31.293Z,3.80
2017-08-27T13:38:58.904Z,3.70
2017-08-27T13:41:26.528Z,4.17
2017-08-27T13:43:54.149Z,3.50
2017-08-27T13:46:22.785Z,3.90
2017-08-27T13:48:50.434Z,4.13
2017-08-27T13:51:20.008Z,4.50
2017-08-27T13:53:47.904Z,4.20
2017-08-27T13:56:15.472Z,3.63
2017-08-27T13:58:43.090Z,4.23
2017-08-27T14:01:10.682Z,4.10
2017-08-27T14:03:38.275Z,4.80
2017-08-27T14:06:05.853Z,4.13
2017-08-27T14:08:33.453Z,4.67
2017-08-27T14:11:01.340Z,4.43
2017-08-27T14:13:29.906Z,4.60
2017-08-27T14:15:57.494Z,3.93
2017-08-27T14:18:25.107Z,3.90
2017-08-27T14:20:52.688Z,4.23
2017-08-27T14:23:20.279Z,4.10
2017-08-27T14:25:47.861Z,4.27
2017-08-27T14:28:15.437Z,4.10
2017-08-27T14:30:43.019Z,4.40
2017-08-27T14:33:10.660Z,3.93
2017-08-27T14:35:38.287Z,4.50
2017-08-27T14:38:06.922Z,3.80
2017-08-27T14:40:34.526Z,4.00
2017-08-27T14:43:02.920Z,4.73
2017-08-27T14:45:30.553Z,4.80
2017-08-27T14:47:58.261Z,3.50
2017-08-27T14:50:25.901Z,3.90
2017-08-27T14:52:53.598Z,3.90
2017-08-27T14:55:21.187Z,4.13
2017-08-27T14:57:48.763Z,4.10
2017-08-27T15:00:16.387Z,4.67
2017-08-27T15:02:44.068Z,4.50
2017-08-27T15:05:11.917Z,4.03
2017-08-27T15:07:39.556Z,4.90
2017-08-27T15:10:07.242Z,5.63
2017-08-27T15:12:34.997Z,5.03
2017-08-27T15:15:02.787Z,5.87
2017-08-27T15:17:30.374Z,5.43
2017-08-27T15:19:57.968Z,5.90
2017-08-27T15:22:25.649Z,6.50
2017-08-27T15:24:54.207Z,6.10
2017-08-27T15:27:21.908Z,6.13
2017-08-27T15:29:49.538Z,6.47
2017-08-27T15:32:17.476Z,6.07
2017-08-27T15:34:45.104Z,4.90
2017-08-27T15:37:13.487Z,6.03
2017-08-27T15:39:41.165Z,7.20
2017-08-27T15:42:08.789Z,7.00
2017-08-27T15:44:37.137Z,7.43
2017-08-27T15:47:04.720Z,6.15
2017-08-27T15:49:32.355Z,7.00
2017-08-27T15:51:59.972Z,6.67
2017-08-27T15:54:27.607Z,6.27
2017-08-27T15:56:55.957Z,6.47
2017-08-27T15:59:23.920Z,5.23
2017-08-27T16:01:51.521Z,5.60
2017-08-27T16:04:19.201Z,5.80
2017-08-27T16:06:46.830Z,6.27
2017-08-27T16:09:14.512Z,6.50
2017-08-27T16:11:42.175Z,6.73
2017-08-27T16:14:09.822Z,5.90
2017-08-27T16:16:37.458Z,6.53
2017-08-27T16:19:05.076Z,6.10
2017-08-27T16:21:32.717Z,7.00
2017-08-27T16:24:00.369Z,7.17
2017-08-27T16:26:28.407Z,7.00
2017-08-27T16:28:56.031Z,7.20
2017-08-27T16:31:23.937Z,6.80
2017-08-27T16:33:51.641Z,6.90
2017-08-27T16:36:19.278Z,7.10
2017-08-27T16:38:47.666Z,6.73
2017-08-27T16:41:15.447Z,5.77
2017-08-27T16:43:43.217Z,5.57
2017-08-27T16:46:10.841Z,7.83
2017-08-27T16:48:39.288Z,7.20
2017-08-27T16:51:06.911Z,7.17
2017-08-27T16:53:34.799Z,7.50
2017-08-27T16:56:02.366Z,6.43
2017-08-27T16:58:29.951Z,6.30
2017-08-27T17:00:57.520Z,7.40
2017-08-27T17:03:26.168Z,7.40
2017-08-27T17:05:53.794Z,7.60
2017-08-27T17:08:21.372Z,7.60
2017-08-27T17:10:49.122Z,7.10
2017-08-27T17:13:17.175Z,7.57
2017-08-27T17:15:44.829Z,7.03
2017-08-27T17:18:12.469Z,6.50
2017-08-27T17:20:40.104Z,12.73
2017-08-27T17:23:07.954Z,9.00
2017-08-27T17:25:35.563Z,7.87
2017-08-27T17:28:03.139Z,7.77
2017-08-27T17:30:31.929Z,7.87
2017-08-27T17:33:00.652Z,7.80
2017-08-27T17:38:00.954Z,7.10
2017-08-27T17:40:28.670Z,7.90
2017-08-27T17:42:56.280Z,6.80
2017-08-27T17:45:23.880Z,7.40
2017-08-27T17:47:51.530Z,7.60
2017-08-27T17:50:19.106Z,7.60
2017-08-27T17:52:46.690Z,6.73
2017-08-27T17:55:14.328Z,7.00
2017-08-27T17:57:41.928Z,6.73
2017-08-27T18:00:09.531Z,7.60
2017-08-27T18:02:37.518Z,7.00
2017-08-27T18:05:05.166Z,8.10
2017-08-27T18:07:32.753Z,6.82
2017-08-27T18:10:01.116Z,7.53
2017-08-27T18:12:28.735Z,7.37
2017-08-27T18:14:56.344Z,7.40
2017-08-27T18:17:24.159Z,7.27
2017-08-27T18:19:51.876Z,7.73
2017-08-27T18:22:20.214Z,8.43
2017-08-27T18:24:48.227Z,8.73
2017-08-27T18:27:15.866Z,8.10
2017-08-27T18:29:43.474Z,8.33
2017-08-27T18:32:11.121Z,8.27
2017-08-27T18:34:38.715Z,9.33
2017-08-27T18:37:07.086Z,9.30
2017-08-27T18:39:34.655Z,8.30
2017-08-27T18:42:02.575Z,7.30
2017-08-27T18:44:30.150Z,8.73
2017-08-27T18:46:57.714Z,7.60
2017-08-27T18:49:25.354Z,8.70
2017-08-27T18:51:52.930Z,7.87
2017-08-27T18:54:20.736Z,8.20
2017-08-27T18:56:48.379Z,8.63
2017-08-27T18:59:16.036Z,7.63
2017-08-27T19:01:43.671Z,8.30
2017-08-27T19:04:11.272Z,7.00
2017-08-27T19:06:39.669Z,8.27
2017-08-27T19:09:07.624Z,7.67
2017-08-27T19:11:36.017Z,7.50
2017-08-27T19:14:03.599Z,9.23
2017-08-27T19:16:31.292Z,7.67
2017-08-27T19:18:58.906Z,8.90
2017-08-27T19:21:26.565Z,8.80
2017-08-27T19:23:54.144Z,8.50
2017-08-27T19:26:21.772Z,8.60
2017-08-27T19:28:49.441Z,10.23
2017-08-27T19:31:17.399Z,8.53
2017-08-27T19:33:45.741Z,8.60
2017-08-27T19:36:13.383Z,8.53
2017-08-27T19:38:41.001Z,10.03
2017-08-27T19:41:08.670Z,9.00
2017-08-27T19:43:36.290Z,8.77
2017-08-27T19:46:03.924Z,8.20
2017-08-27T19:48:32.326Z,8.47
2017-08-27T19:50:59.992Z,9.07
2017-08-27T19:53:28.415Z,9.23
2017-08-27T19:55:56.018Z,8.23
2017-08-27T19:58:23.954Z,9.03
2017-08-27T20:00:51.593Z,8.53
2017-08-27T20:03:19.317Z,9.00
2017-08-27T20:05:46.999Z,9.00
2017-08-27T20:08:14.623Z,8.40
2017-08-27T20:10:42.286Z,8.40
2017-08-27T20:13:09.954Z,9.23
2017-08-27T20:15:37.537Z,9.57
2017-08-27T20:18:06.022Z,8.57
2017-08-27T20:20:33.625Z,8.23
2017-08-27T20:23:01.215Z,8.80
2017-08-27T20:25:29.099Z,8.00
2017-08-27T20:27:56.679Z,7.73
2017-08-27T20:30:24.385Z,8.60
2017-08-27T20:32:51.988Z,8.17
2017-08-27T20:35:19.658Z,8.20
2017-08-27T20:37:47.370Z,8.33
2017-08-27T20:40:14.979Z,9.83
2017-08-27T20:42:42.589Z,9.20
2017-08-27T20:45:10.311Z,8.87
2017-08-27T20:47:37.936Z,9.50
2017-08-27T20:50:05.568Z,8.67
2017-08-27T20:52:33.164Z,8.70
2017-08-27T20:55:00.924Z,9.30
2017-08-27T20:57:28.617Z,9.00
2017-08-27T20:59:56.225Z,9.60
2017-08-27T21:02:23.922Z,9.27
2017-08-27T21:04:51.552Z,9.03
2017-08-27T21:07:19.138Z,8.50
2017-08-27T21:09:47.197Z,8.80
2017-08-27T21:12:14.798Z,9.13
2017-08-27T21:14:42.393Z,9.23
2017-08-27T21:17:10.021Z,8.67
2017-08-27T21:19:37.642Z,9.63
2017-08-27T21:22:05.287Z,8.53
2017-08-27T21:24:33.177Z,8.70
2017-08-27T21:27:00.765Z,8.63
2017-08-27T21:29:28.354Z,8.67
2017-08-27T21:31:55.958Z,8.43
2017-08-27T21:34:23.596Z,8.10
2017-08-27T21:36:51.203Z,9.10
2017-08-27T21:39:18.796Z,9.70
2017-08-27T21:41:46.400Z,8.40
2017-08-27T21:44:13.995Z,8.07
2017-08-27T21:46:41.587Z,8.50
2017-08-27T21:49:09.206Z,9.73
2017-08-27T21:51:37.085Z,8.40
2017-08-27T21:54:04.677Z,7.77
2017-08-27T21:56:32.290Z,8.60
2017-08-27T21:58:59.890Z,8.70
2017-08-27T22:01:27.468Z,8.60
2017-08-27T22:03:55.090Z,7.87
2017-08-27T22:06:22.723Z,8.30
2017-08-27T22:08:50.308Z,9.33
2017-08-27T22:11:17.878Z,8.20
2017-08-27T22:13:45.760Z,8.37
2017-08-27T22:16:13.364Z,8.03
2017-08-27T22:18:41.712Z,8.00
2017-08-27T22:21:09.309Z,8.07
2017-08-27T22:23:36.896Z,8.50
2017-08-27T22:26:04.477Z,8.47
2017-08-27T22:28:32.081Z,8.83
2017-08-27T22:31:00.727Z,9.07
2017-08-27T22:33:28.303Z,8.57
2017-08-27T22:35:55.889Z,9.07
2017-08-27T22:38:24.242Z,8.90
2017-08-27T22:40:52.566Z,8.70
2017-08-27T22:43:20.231Z,8.50
2017-08-27T22:45:47.804Z,9.03
2017-08-27T22:48:15.399Z,8.97
2017-08-27T22:50:42.973Z,8.00
2017-08-27T22:53:10.968Z,9.67
2017-08-27T22:55:38.557Z,9.50
2017-08-27T22:58:06.159Z,9.30
2017-08-27T23:00:33.728Z,9.43
2017-08-27T23:03:01.324Z,8.70
2017-08-27T23:05:28.935Z,8.50
2017-08-27T23:07:56.526Z,9.10
2017-08-27T23:10:24.125Z,8.70
2017-08-27T23:12:51.713Z,8.77
2017-08-27T23:15:19.334Z,8.87
2017-08-27T23:17:46.913Z,9.47
2017-08-27T23:20:14.802Z,9.33
2017-08-27T23:22:42.383Z,9.27
2017-08-27T23:25:09.955Z,8.27
2017-08-27T23:27:37.545Z,8.40
2017-08-27T23:30:05.140Z,9.10
2017-08-27T23:32:32.744Z,9.63
2017-08-27T23:35:00.316Z,9.43
2017-08-27T23:37:27.923Z,10.07
2017-08-27T23:39:55.503Z,8.37
2017-08-27T23:42:23.150Z,9.10
2017-08-27T23:44:50.742Z,8.70
2017-08-27T23:47:18.629Z,9.03
2017-08-27T23:49:46.241Z,9.97
2017-08-27T23:52:13.828Z,9.00
2017-08-27T23:54:41.429Z,9.80
2017-08-27T23:57:09.776Z,9.80
2017-08-27T23:59:37.371Z,10.13
